createdAt,value
2023-05-02T00:00:03.872Z,40.23
2023-05-02T00:01:03.970Z,40.24
2023-05-02T00:02:04.152Z,40.21
2023-05-02T00:03:04.265Z,40.20
2023-05-02T00:04:04.506Z,40.25
2023-05-02T00:05:04.397Z,40.23
2023-05-02T00:06:04.572Z,40.23
2023-05-02T00:07:04.623Z,40.23
2023-05-02T00:08:04.749Z,40.22
2023-05-02T00:09:04.853Z,40.25
2023-05-02T00:10:04.982Z,40.26
2023-05-02T00:11:05.075Z,40.23
2023-05-02T00:12:05.172Z,40.25
2023-05-02T00:13:05.549Z,40.26
2023-05-02T00:14:05.405Z,40.26
2023-05-02T00:15:05.508Z,40.26
2023-05-02T00:16:05.616Z,40.25
2023-05-02T00:17:05.813Z,40.25
2023-05-02T00:18:05.885Z,40.29
2023-05-02T00:19:05.944Z,40.29
2023-05-02T00:20:06.057Z,40.32
2023-05-02T00:21:06.173Z,40.30
2023-05-02T00:22:06.408Z,40.29
2023-05-02T00:23:06.391Z,40.32
2023-05-02T00:24:06.585Z,40.28
2023-05-02T00:25:06.689Z,40.29
2023-05-02T00:26:06.798Z,40.30
2023-05-02T00:27:06.865Z,40.33
2023-05-02T00:28:06.963Z,40.35
2023-05-02T00:29:07.083Z,40.36
2023-05-02T00:30:07.185Z,40.33
2023-05-02T00:31:07.353Z,40.36
2023-05-02T00:32:07.492Z,40.35
2023-05-02T00:33:07.620Z,40.34
2023-05-02T00:34:07.632Z,40.39
2023-05-02T00:35:07.745Z,40.40
2023-05-02T00:36:07.848Z,40.38
2023-05-02T00:37:07.952Z,40.35
2023-05-02T00:38:08.082Z,40.38
2023-05-02T00:39:08.201Z,40.35
2023-05-02T00:40:08.368Z,40.39
2023-05-02T00:41:08.468Z,40.38
2023-05-02T00:42:08.539Z,40.35
2023-05-02T00:43:08.636Z,40.35
2023-05-02T00:44:08.762Z,40.33
2023-05-02T00:45:08.858Z,40.35
2023-05-02T00:46:09.042Z,40.36
2023-05-02T00:47:09.085Z,40.37
2023-05-02T00:48:09.279Z,40.39
2023-05-02T00:49:09.311Z,40.40
2023-05-02T00:50:09.433Z,40.48
2023-05-02T00:51:09.542Z,40.42
2023-05-02T00:52:09.738Z,40.42
2023-05-02T00:53:09.783Z,40.44
2023-05-02T00:54:09.952Z,40.42
2023-05-02T00:55:09.982Z,40.45
2023-05-02T00:56:10.096Z,40.44
2023-05-02T00:57:10.200Z,40.46
2023-05-02T00:58:10.312Z,40.45
2023-05-02T00:59:10.559Z,40.47
2023-05-02T01:00:10.552Z,40.49
2023-05-02T01:01:10.715Z,40.46
2023-05-02T01:02:10.896Z,40.46
2023-05-02T01:03:10.926Z,40.44
2023-05-02T01:04:11.157Z,40.42
2023-05-02T01:05:11.132Z,40.44
2023-05-02T01:06:11.301Z,40.51
2023-05-02T01:07:11.342Z,40.46
2023-05-02T01:08:11.472Z,40.51
2023-05-02T01:09:11.584Z,40.46
2023-05-02T01:10:11.704Z,40.47
2023-05-02T01:11:11.806Z,40.49
2023-05-02T01:12:11.921Z,40.53
2023-05-02T01:13:12.051Z,40.49
2023-05-02T01:14:12.184Z,40.51
2023-05-02T01:15:12.280Z,40.52
2023-05-02T01:16:12.423Z,40.49
2023-05-02T01:17:12.518Z,40.52
2023-05-02T01:18:12.654Z,40.51
2023-05-02T01:19:12.743Z,40.49
2023-05-02T01:20:12.857Z,40.44
2023-05-02T01:21:12.974Z,40.44
2023-05-02T01:22:13.093Z,40.46
2023-05-02T01:23:13.190Z,40.44
2023-05-02T01:24:13.312Z,40.46
2023-05-02T01:25:13.424Z,40.43
2023-05-02T01:26:13.543Z,40.41
2023-05-02T01:27:14.564Z,40.41
2023-05-02T01:28:13.796Z,40.43
2023-05-02T01:29:13.889Z,40.38
2023-05-02T01:30:14.013Z,40.37
2023-05-02T01:31:14.142Z,40.38
2023-05-02T01:32:14.220Z,40.38
2023-05-02T01:33:14.474Z,40.36
2023-05-02T01:34:14.450Z,40.34
2023-05-02T01:35:14.631Z,40.33
2023-05-02T01:36:14.678Z,40.33
2023-05-02T01:37:14.798Z,40.35
2023-05-02T01:38:14.910Z,40.34
2023-05-02T01:39:15.050Z,40.38
2023-05-02T01:40:15.158Z,40.33
2023-05-02T01:41:15.277Z,40.37
2023-05-02T01:42:15.380Z,40.35
2023-05-02T01:43:15.509Z,40.35
2023-05-02T01:44:15.631Z,40.35
2023-05-02T01:45:15.747Z,40.37
2023-05-02T01:46:15.966Z,40.42
2023-05-02T01:47:16.026Z,40.39
2023-05-02T01:48:16.085Z,40.38
2023-05-02T01:49:16.185Z,40.43
2023-05-02T01:50:16.293Z,40.42
2023-05-02T01:51:16.400Z,40.39
2023-05-02T01:52:16.522Z,40.44
2023-05-02T01:53:16.636Z,40.48
2023-05-02T01:54:17.073Z,40.41
2023-05-02T01:55:16.867Z,40.49
2023-05-02T01:56:16.965Z,40.48
2023-05-02T01:57:17.077Z,40.51
2023-05-02T01:58:17.199Z,40.49
2023-05-02T01:59:17.391Z,40.48
2023-05-02T02:00:17.429Z,40.49
2023-05-02T02:01:17.589Z,40.49
2023-05-02T02:02:17.720Z,40.52
2023-05-02T02:03:17.813Z,40.49
2023-05-02T02:04:17.904Z,40.52
2023-05-02T02:05:17.982Z,40.53
2023-05-02T02:06:18.163Z,40.52
2023-05-02T02:07:18.209Z,40.48
2023-05-02T02:08:18.324Z,40.52
2023-05-02T02:09:18.443Z,40.53
2023-05-02T02:10:18.566Z,40.55
2023-05-02T02:11:18.669Z,40.50
2023-05-02T02:12:18.815Z,40.49
2023-05-02T02:13:18.898Z,40.54
2023-05-02T02:14:19.576Z,40.50
2023-05-02T02:15:19.132Z,40.50
2023-05-02T02:16:19.285Z,40.48
2023-05-02T02:17:20.100Z,40.48
2023-05-02T02:18:19.446Z,40.49
2023-05-02T02:19:19.562Z,40.44
2023-05-02T02:20:19.666Z,40.46
2023-05-02T02:21:19.786Z,40.43
2023-05-02T02:22:19.957Z,40.46
2023-05-02T02:23:20.001Z,40.39
2023-05-02T02:24:20.110Z,40.47
2023-05-02T02:25:20.219Z,40.41
2023-05-02T02:26:20.339Z,40.44
2023-05-02T02:27:20.468Z,40.44
2023-05-02T02:28:21.090Z,40.41
2023-05-02T02:29:20.670Z,40.42
2023-05-02T02:30:20.775Z,40.39
2023-05-02T02:31:21.219Z,40.41
2023-05-02T02:32:21.005Z,40.38
2023-05-02T02:33:21.130Z,40.34
2023-05-02T02:34:21.225Z,40.37
2023-05-02T02:35:21.336Z,40.35
2023-05-02T02:36:21.441Z,40.35
2023-05-02T02:37:21.549Z,40.38
2023-05-02T02:38:21.759Z,40.37
2023-05-02T02:39:21.778Z,40.35
2023-05-02T02:40:21.899Z,40.38
2023-05-02T02:41:22.019Z,40.39
2023-05-02T02:42:22.126Z,40.38
2023-05-02T02:43:22.244Z,40.41
2023-05-02T02:44:22.355Z,40.36
2023-05-02T02:45:22.467Z,40.34
2023-05-02T02:46:22.687Z,40.34
2023-05-02T02:47:23.586Z,40.29
2023-05-02T02:48:22.807Z,40.33
2023-05-02T02:49:22.933Z,40.35
2023-05-02T02:50:23.044Z,40.35
2023-05-02T02:51:23.163Z,40.35
2023-05-02T02:52:23.278Z,40.33
2023-05-02T02:53:24.291Z,40.39
2023-05-02T02:54:27.108Z,40.33
2023-05-02T02:55:23.600Z,40.37
2023-05-02T02:56:23.605Z,40.35
2023-05-02T02:57:23.649Z,40.33
2023-05-02T02:58:23.704Z,40.35
2023-05-02T02:59:23.758Z,40.33
2023-05-02T03:00:23.800Z,40.35
2023-05-02T03:01:23.911Z,40.36
2023-05-02T03:02:23.906Z,40.34
2023-05-02T03:03:24.042Z,40.34
2023-05-02T03:04:24.010Z,40.31
2023-05-02T03:05:24.086Z,40.34
2023-05-02T03:06:24.168Z,40.39
2023-05-02T03:07:24.145Z,40.35
2023-05-02T03:08:24.193Z,40.34
2023-05-02T03:09:24.255Z,40.33
2023-05-02T03:10:24.299Z,40.35
2023-05-02T03:11:24.357Z,40.31
2023-05-02T03:12:24.401Z,40.32
2023-05-02T03:13:24.447Z,40.31
2023-05-02T03:14:24.490Z,40.34
2023-05-02T03:15:24.539Z,40.34
2023-05-02T03:16:24.684Z,40.33
2023-05-02T03:17:26.383Z,40.36
2023-05-02T03:18:24.718Z,40.33
2023-05-02T03:19:24.819Z,40.36
2023-05-02T03:20:24.981Z,40.36
2023-05-02T03:21:25.049Z,40.30
2023-05-02T03:22:25.166Z,40.33
2023-05-02T03:23:25.276Z,40.35
2023-05-02T03:24:25.422Z,40.34
2023-05-02T03:25:25.495Z,40.30
2023-05-02T03:26:25.617Z,40.31
2023-05-02T03:27:25.725Z,40.33
2023-05-02T03:28:25.847Z,40.33
2023-05-02T03:29:25.967Z,40.33
2023-05-02T03:30:26.149Z,40.35
2023-05-02T03:31:26.765Z,40.33
2023-05-02T03:32:26.359Z,40.34
2023-05-02T03:33:26.410Z,40.34
2023-05-02T03:34:26.528Z,40.33
2023-05-02T03:35:26.633Z,40.29
2023-05-02T03:36:26.744Z,40.31
2023-05-02T03:37:26.848Z,40.34
2023-05-02T03:38:26.963Z,40.35
2023-05-02T03:39:27.085Z,40.31
2023-05-02T03:40:27.194Z,40.39
2023-05-02T03:41:27.298Z,40.34
2023-05-02T03:42:27.424Z,40.32
2023-05-02T03:43:27.543Z,40.32
2023-05-02T03:44:27.655Z,40.34
2023-05-02T03:45:27.772Z,40.32
2023-05-02T03:46:27.925Z,40.34
2023-05-02T03:47:28.147Z,40.34
2023-05-02T03:48:28.112Z,40.35
2023-05-02T03:49:28.241Z,40.35
2023-05-02T03:50:28.435Z,40.34
2023-05-02T03:51:28.474Z,40.35
2023-05-02T03:52:28.699Z,40.34
2023-05-02T03:53:28.709Z,40.34
2023-05-02T03:54:28.835Z,40.35
2023-05-02T03:55:28.962Z,40.32
2023-05-02T03:56:29.076Z,40.34
2023-05-02T03:57:29.192Z,40.36
2023-05-02T03:58:29.302Z,40.37
2023-05-02T03:59:29.449Z,40.34
2023-05-02T04:00:29.548Z,40.35
2023-05-02T04:01:29.665Z,40.35
2023-05-02T04:02:29.965Z,40.40
2023-05-02T04:03:30.625Z,40.39
2023-05-02T04:04:30.025Z,40.33
2023-05-02T04:05:30.124Z,40.36
2023-05-02T04:06:30.316Z,40.37
2023-05-02T04:07:30.369Z,40.40
2023-05-02T04:08:30.468Z,40.38
2023-05-02T04:09:30.591Z,40.41
2023-05-02T04:10:30.704Z,40.43
2023-05-02T04:11:30.832Z,40.38
2023-05-02T04:12:30.954Z,40.40
2023-05-02T04:13:31.073Z,40.37
2023-05-02T04:14:31.191Z,40.43
2023-05-02T04:15:31.290Z,40.37
2023-05-02T04:16:31.453Z,40.38
2023-05-02T04:17:31.571Z,40.42
2023-05-02T04:18:31.653Z,40.47
2023-05-02T04:19:31.775Z,40.42
2023-05-02T04:20:31.905Z,40.43
2023-05-02T04:21:32.022Z,40.43
2023-05-02T04:22:32.131Z,40.41
2023-05-02T04:23:32.269Z,40.40
2023-05-02T04:24:32.383Z,40.47
2023-05-02T04:25:32.558Z,40.44
2023-05-02T04:26:32.614Z,40.46
2023-05-02T04:27:32.736Z,40.46
2023-05-02T04:28:32.870Z,40.43
2023-05-02T04:29:33.006Z,40.46
2023-05-02T04:30:33.153Z,40.42
2023-05-02T04:31:33.253Z,40.43
2023-05-02T04:32:33.388Z,40.44
2023-05-02T04:33:34.135Z,40.38
2023-05-02T04:34:33.589Z,40.43
2023-05-02T04:35:33.696Z,40.44
2023-05-02T04:36:33.834Z,40.41
2023-05-02T04:37:33.925Z,40.41
2023-05-02T04:38:34.036Z,40.41
2023-05-02T04:39:34.162Z,40.40
2023-05-02T04:40:34.277Z,40.38
2023-05-02T04:41:34.390Z,40.42
2023-05-02T04:42:34.506Z,40.42
2023-05-02T04:43:34.600Z,40.39
2023-05-02T04:44:34.709Z,40.43
2023-05-02T04:45:34.820Z,40.42
2023-05-02T04:46:35.008Z,40.42
2023-05-02T04:47:35.122Z,40.47
2023-05-02T04:48:35.304Z,40.38
2023-05-02T04:49:35.294Z,40.42
2023-05-02T04:50:35.407Z,40.42
2023-05-02T04:51:36.136Z,40.44
2023-05-02T04:52:35.640Z,40.41
2023-05-02T04:53:35.758Z,40.42
2023-05-02T04:54:35.860Z,40.39
2023-05-02T04:55:35.980Z,40.43
2023-05-02T04:56:36.103Z,40.44
2023-05-02T04:57:36.232Z,40.46
2023-05-02T04:58:36.329Z,40.44
2023-05-02T04:59:36.457Z,40.44
2023-05-02T05:00:36.564Z,40.47
2023-05-02T05:01:36.725Z,40.43
2023-05-02T05:02:36.899Z,40.42
2023-05-02T05:03:37.112Z,40.43
2023-05-02T05:04:37.038Z,40.40
2023-05-02T05:05:37.193Z,40.45
2023-05-02T05:06:37.261Z,40.40
2023-05-02T05:07:37.411Z,40.42
2023-05-02T05:08:37.515Z,40.40
2023-05-02T05:09:37.620Z,40.40
2023-05-02T05:10:37.742Z,40.43
2023-05-02T05:11:37.847Z,40.42
2023-05-02T05:12:37.953Z,40.43
2023-05-02T05:13:38.159Z,40.46
2023-05-02T05:14:38.209Z,40.40
2023-05-02T05:15:39.144Z,40.40
2023-05-02T05:16:38.474Z,40.44
2023-05-02T05:17:38.579Z,40.43
2023-05-02T05:18:38.671Z,40.53
2023-05-02T05:19:39.153Z,40.69
2023-05-02T05:20:38.915Z,41.11
2023-05-02T05:21:39.054Z,41.04
2023-05-02T05:22:39.148Z,41.36
2023-05-02T05:23:39.289Z,41.26
2023-05-02T05:24:39.393Z,41.19
2023-05-02T05:25:39.490Z,41.63
2023-05-02T05:26:39.611Z,41.37
2023-05-02T05:27:39.790Z,42.30
2023-05-02T05:28:39.865Z,42.41
2023-05-02T05:29:39.976Z,42.52
2023-05-02T05:30:40.160Z,42.74
2023-05-02T05:31:41.156Z,43.21
2023-05-02T05:32:41.107Z,43.91
2023-05-02T05:33:40.409Z,43.95
2023-05-02T05:34:40.467Z,44.59
2023-05-02T05:35:40.530Z,44.51
2023-05-02T05:36:40.695Z,44.97
2023-05-02T05:37:40.640Z,45.40
2023-05-02T05:38:40.690Z,45.20
2023-05-02T05:39:40.748Z,45.67
2023-05-02T05:40:41.656Z,46.32
2023-05-02T05:41:40.892Z,46.42
2023-05-02T05:42:40.968Z,46.38
2023-05-02T05:43:41.719Z,46.92
2023-05-02T05:44:41.168Z,47.19
2023-05-02T05:45:41.276Z,47.64
2023-05-02T05:46:41.421Z,47.83
2023-05-02T05:47:41.541Z,47.97
2023-05-02T05:48:41.590Z,48.02
2023-05-02T05:49:42.588Z,48.10
2023-05-02T05:50:41.804Z,48.10
2023-05-02T05:51:41.894Z,48.29
2023-05-02T05:52:41.984Z,48.54
2023-05-02T05:53:42.663Z,48.56
2023-05-02T05:54:42.172Z,48.38
2023-05-02T05:55:42.502Z,48.76
2023-05-02T05:56:43.171Z,49.37
2023-05-02T05:57:42.502Z,48.92
2023-05-02T05:58:42.513Z,49.52
2023-05-02T05:59:42.592Z,49.44
2023-05-02T06:00:42.672Z,49.45
2023-05-02T06:01:42.768Z,49.39
2023-05-02T06:02:42.954Z,49.87
2023-05-02T06:03:43.120Z,49.75
2023-05-02T06:04:43.020Z,49.83
2023-05-02T06:05:43.027Z,50.04
2023-05-02T06:06:43.122Z,50.18
2023-05-02T06:07:43.180Z,50.22
2023-05-02T06:08:43.246Z,50.44
2023-05-02T06:09:43.322Z,50.52
2023-05-02T06:10:43.379Z,50.72
2023-05-02T06:11:43.456Z,50.81
2023-05-02T06:12:43.510Z,50.77
2023-05-02T06:13:43.604Z,51.06
2023-05-02T06:14:43.680Z,51.05
2023-05-02T06:15:43.766Z,51.41
2023-05-02T06:16:43.776Z,51.35
2023-05-02T06:17:44.708Z,51.42
2023-05-02T06:18:43.870Z,51.41
2023-05-02T06:19:43.942Z,51.59
2023-05-02T06:20:44.018Z,51.31
2023-05-02T06:21:44.077Z,51.14
2023-05-02T06:22:44.183Z,50.98
2023-05-02T06:23:44.221Z,50.81
2023-05-02T06:24:44.340Z,51.46
2023-05-02T06:25:44.388Z,50.84
2023-05-02T06:26:44.465Z,50.75
2023-05-02T06:27:44.558Z,50.60
2023-05-02T06:28:45.184Z,50.61
2023-05-02T06:29:44.751Z,50.49
2023-05-02T06:30:44.854Z,50.45
2023-05-02T06:31:45.012Z,50.49
2023-05-02T06:32:45.090Z,50.44
2023-05-02T06:33:45.152Z,50.45
2023-05-02T06:34:45.268Z,50.36
2023-05-02T06:35:46.293Z,50.39
2023-05-02T06:36:45.331Z,50.34
2023-05-02T06:37:45.368Z,50.37
2023-05-02T06:38:45.419Z,50.25
2023-05-02T06:39:45.578Z,50.35
2023-05-02T06:40:45.459Z,50.32
2023-05-02T06:41:45.517Z,50.29
2023-05-02T06:42:45.540Z,50.28
2023-05-02T06:43:45.565Z,50.30
2023-05-02T06:44:45.613Z,50.30
2023-05-02T06:45:45.642Z,50.33
2023-05-02T06:46:45.757Z,50.34
2023-05-02T06:47:46.755Z,50.28
2023-05-02T06:48:45.754Z,50.21
2023-05-02T06:49:45.788Z,50.30
2023-05-02T06:50:45.837Z,50.22
2023-05-02T06:51:45.853Z,50.16
2023-05-02T06:52:45.994Z,50.20
2023-05-02T06:53:45.938Z,50.16
2023-05-02T06:54:45.974Z,50.18
2023-05-02T06:55:46.034Z,50.13
2023-05-02T06:56:46.043Z,50.12
2023-05-02T06:57:46.069Z,50.06
2023-05-02T06:58:46.123Z,50.04
2023-05-02T06:59:46.146Z,50.03
2023-05-02T07:00:46.275Z,49.98
2023-05-02T07:01:46.221Z,49.98
2023-05-02T07:02:46.274Z,49.98
2023-05-02T07:03:46.307Z,50.00
2023-05-02T07:04:46.503Z,49.87
2023-05-02T07:05:46.378Z,49.83
2023-05-02T07:06:46.477Z,49.84
2023-05-02T07:07:46.452Z,49.83
2023-05-02T07:08:47.187Z,49.76
2023-05-02T07:09:46.661Z,49.75
2023-05-02T07:10:46.565Z,49.77
2023-05-02T07:11:46.603Z,49.80
2023-05-02T07:12:46.666Z,49.71
2023-05-02T07:13:46.705Z,49.70
2023-05-02T07:14:46.789Z,49.61
2023-05-02T07:15:46.797Z,49.57
2023-05-02T07:16:46.984Z,49.61
2023-05-02T07:17:46.970Z,49.61
2023-05-02T07:18:46.981Z,49.56
2023-05-02T07:19:47.039Z,49.49
2023-05-02T07:20:47.114Z,49.48
2023-05-02T07:21:47.153Z,49.45
2023-05-02T07:22:47.213Z,49.53
2023-05-02T07:23:47.276Z,49.53
2023-05-02T07:24:47.333Z,49.95
2023-05-02T07:25:47.357Z,50.06
2023-05-02T07:26:47.422Z,50.22
2023-05-02T07:27:47.512Z,50.45
2023-05-02T07:28:47.609Z,50.75
2023-05-02T07:29:47.716Z,50.75
2023-05-02T07:30:47.880Z,51.21
2023-05-02T07:31:47.935Z,51.24
2023-05-02T07:32:48.045Z,51.22
2023-05-02T07:33:48.089Z,51.47
2023-05-02T07:34:48.161Z,51.63
2023-05-02T07:35:48.233Z,51.82
2023-05-02T07:36:48.303Z,51.88
2023-05-02T07:37:48.395Z,52.03
2023-05-02T07:38:48.466Z,51.91
2023-05-02T07:39:48.560Z,52.17
2023-05-02T07:40:48.603Z,52.28
2023-05-02T07:41:48.663Z,52.36
2023-05-02T07:42:48.735Z,52.30
2023-05-02T07:43:48.803Z,52.66
2023-05-02T07:44:48.864Z,52.61
2023-05-02T07:45:48.954Z,52.75
2023-05-02T07:46:49.836Z,52.88
2023-05-02T07:47:49.143Z,52.94
2023-05-02T07:48:49.088Z,53.01
2023-05-02T07:49:49.123Z,53.02
2023-05-02T07:50:49.185Z,53.02
2023-05-02T07:51:49.237Z,53.17
2023-05-02T07:52:49.279Z,53.33
2023-05-02T07:53:49.331Z,53.27
2023-05-02T07:54:49.374Z,53.39
2023-05-02T07:55:49.424Z,53.58
2023-05-02T07:56:49.470Z,53.65
2023-05-02T07:57:49.522Z,53.60
2023-05-02T07:58:49.564Z,53.66
2023-05-02T07:59:49.608Z,54.05
2023-05-02T08:00:49.663Z,53.75
2023-05-02T08:01:49.695Z,53.77
2023-05-02T08:02:49.796Z,53.42
2023-05-02T08:03:49.917Z,53.24
2023-05-02T08:04:49.868Z,52.85
2023-05-02T08:05:49.916Z,52.33
2023-05-02T08:06:50.116Z,52.15
2023-05-02T08:07:50.060Z,51.84
2023-05-02T08:08:50.143Z,51.40
2023-05-02T08:09:50.250Z,50.63
2023-05-02T08:10:50.340Z,49.77
2023-05-02T08:11:50.391Z,48.64
2023-05-02T08:12:50.468Z,49.08
2023-05-02T08:13:50.525Z,48.98
2023-05-02T08:14:50.607Z,48.47
2023-05-02T08:15:50.746Z,46.74
2023-05-02T08:16:51.994Z,45.12
2023-05-02T08:17:50.746Z,45.27
2023-05-02T08:18:50.739Z,46.40
2023-05-02T08:19:51.723Z,45.29
2023-05-02T08:20:50.846Z,44.98
2023-05-02T08:21:50.854Z,45.03
2023-05-02T08:22:50.901Z,43.40
2023-05-02T08:23:50.942Z,43.91
2023-05-02T08:24:50.984Z,44.16
2023-05-02T08:25:51.029Z,44.79
2023-05-02T08:26:51.094Z,44.65
2023-05-02T08:27:51.142Z,45.19
2023-05-02T08:28:51.198Z,45.53
2023-05-02T08:29:51.274Z,45.78
2023-05-02T08:30:51.348Z,45.70
2023-05-02T08:31:51.452Z,46.35
2023-05-02T08:32:51.538Z,46.49
2023-05-02T08:33:51.583Z,46.72
2023-05-02T08:34:51.572Z,46.93
2023-05-02T08:35:51.679Z,47.09
2023-05-02T08:36:51.753Z,47.29
2023-05-02T08:37:51.848Z,47.42
2023-05-02T08:38:52.734Z,47.52
2023-05-02T08:39:52.043Z,47.81
2023-05-02T08:40:52.069Z,47.90
2023-05-02T08:41:52.141Z,48.14
2023-05-02T08:42:52.175Z,48.32
2023-05-02T08:43:52.234Z,48.42
2023-05-02T08:44:52.310Z,48.60
2023-05-02T08:45:52.352Z,48.67
2023-05-02T08:46:52.380Z,48.79
2023-05-02T08:47:52.495Z,48.98
2023-05-02T08:48:52.446Z,49.12
2023-05-02T08:49:52.538Z,49.08
2023-05-02T08:50:52.523Z,49.28
2023-05-02T08:51:52.555Z,49.49
2023-05-02T08:52:52.582Z,49.68
2023-05-02T08:53:52.594Z,49.86
2023-05-02T08:54:52.608Z,50.03
2023-05-02T08:55:52.646Z,50.19
2023-05-02T08:56:52.658Z,50.36
2023-05-02T08:57:52.689Z,50.36
2023-05-02T08:58:52.701Z,50.37
2023-05-02T08:59:52.710Z,50.58
2023-05-02T09:00:52.765Z,50.82
2023-05-02T09:01:52.750Z,50.84
2023-05-02T09:02:52.883Z,50.97
2023-05-02T09:03:52.863Z,51.06
2023-05-02T09:04:52.869Z,51.40
2023-05-02T09:05:52.888Z,51.27
2023-05-02T09:06:53.013Z,51.40
2023-05-02T09:07:52.970Z,51.22
2023-05-02T09:08:53.012Z,51.59
2023-05-02T09:09:53.063Z,51.77
2023-05-02T09:10:53.131Z,51.63
2023-05-02T09:11:53.186Z,51.74
2023-05-02T09:12:53.241Z,51.84
2023-05-02T09:13:53.354Z,51.92
2023-05-02T09:14:53.402Z,51.98
2023-05-02T09:15:53.445Z,52.06
2023-05-02T09:16:53.632Z,51.91
2023-05-02T09:17:53.528Z,51.45
2023-05-02T09:18:53.506Z,50.94
2023-05-02T09:19:53.538Z,50.10
2023-05-02T09:20:53.661Z,48.59
2023-05-02T09:21:53.635Z,49.73
2023-05-02T09:22:53.700Z,49.62
2023-05-02T09:23:53.727Z,49.50
2023-05-02T09:24:53.783Z,49.06
2023-05-02T09:25:53.848Z,49.30
2023-05-02T09:26:53.878Z,49.32
2023-05-02T09:27:53.921Z,49.36
2023-05-02T09:28:53.959Z,49.54
2023-05-02T09:29:53.989Z,49.64
2023-05-02T09:30:54.053Z,49.72
2023-05-02T09:31:56.286Z,49.85
2023-05-02T09:32:54.272Z,50.02
2023-05-02T09:33:54.292Z,50.11
2023-05-02T09:34:54.296Z,50.27
2023-05-02T09:35:54.320Z,50.56
2023-05-02T09:36:54.775Z,50.52
2023-05-02T09:37:54.406Z,50.63
2023-05-02T09:38:54.446Z,50.81
2023-05-02T09:39:54.555Z,50.96
2023-05-02T09:40:54.647Z,51.08
2023-05-02T09:41:54.896Z,51.16
2023-05-02T09:42:54.762Z,51.35
2023-05-02T09:43:54.838Z,51.39
2023-05-02T09:44:55.031Z,51.63
2023-05-02T09:45:55.050Z,51.75
2023-05-02T09:46:55.085Z,51.72
2023-05-02T09:47:55.342Z,51.83
2023-05-02T09:48:55.225Z,51.90
2023-05-02T09:49:55.309Z,52.05
2023-05-02T09:50:55.383Z,52.06
2023-05-02T09:51:55.498Z,52.27
2023-05-02T09:52:55.536Z,52.43
2023-05-02T09:53:55.598Z,52.54
2023-05-02T09:54:55.673Z,52.52
2023-05-02T09:55:55.751Z,52.84
2023-05-02T09:56:55.835Z,52.82
2023-05-02T09:57:55.894Z,52.88
2023-05-02T09:58:55.977Z,53.06
2023-05-02T09:59:56.052Z,53.07
2023-05-02T10:00:56.132Z,53.12
2023-05-02T10:01:56.267Z,53.66
2023-05-02T10:02:56.316Z,53.47
2023-05-02T10:03:56.371Z,53.41
2023-05-02T10:04:56.395Z,53.96
2023-05-02T10:05:56.459Z,54.01
2023-05-02T10:06:56.512Z,53.89
2023-05-02T10:07:56.581Z,54.27
2023-05-02T10:08:56.638Z,54.09
2023-05-02T10:09:56.718Z,54.14
2023-05-02T10:10:56.808Z,54.04
2023-05-02T10:11:56.886Z,54.25
2023-05-02T10:12:56.947Z,53.83
2023-05-02T10:13:57.029Z,53.66
2023-05-02T10:14:57.117Z,53.64
2023-05-02T10:15:57.300Z,53.39
2023-05-02T10:16:57.271Z,53.32
2023-05-02T10:17:57.371Z,53.26
2023-05-02T10:18:57.423Z,53.28
2023-05-02T10:19:57.503Z,53.21
2023-05-02T10:20:57.593Z,53.35
2023-05-02T10:21:57.653Z,53.29
2023-05-02T10:22:57.709Z,53.14
2023-05-02T10:23:58.272Z,53.15
2023-05-02T10:24:57.971Z,53.21
2023-05-02T10:25:58.749Z,53.30
2023-05-02T10:26:57.911Z,53.29
2023-05-02T10:27:57.975Z,53.34
2023-05-02T10:28:58.024Z,53.30
2023-05-02T10:29:58.061Z,53.31
2023-05-02T10:30:58.101Z,53.36
2023-05-02T10:31:58.322Z,53.37
2023-05-02T10:32:58.201Z,53.35
2023-05-02T10:33:58.183Z,53.38
2023-05-02T10:34:58.359Z,53.38
2023-05-02T10:35:58.250Z,53.42
2023-05-02T10:36:58.233Z,53.40
2023-05-02T10:37:58.266Z,53.37
2023-05-02T10:38:58.286Z,53.37
2023-05-02T10:39:58.340Z,53.34
2023-05-02T10:40:58.342Z,53.39
2023-05-02T10:41:58.356Z,53.24
2023-05-02T10:42:58.378Z,53.27
2023-05-02T10:43:58.397Z,53.25
2023-05-02T10:44:58.750Z,53.32
2023-05-02T10:45:58.453Z,53.22
2023-05-02T10:46:58.712Z,53.21
2023-05-02T10:47:58.551Z,53.22
2023-05-02T10:48:59.584Z,53.20
2023-05-02T10:49:58.539Z,53.17
2023-05-02T10:50:58.563Z,53.19
2023-05-02T10:51:58.567Z,53.12
2023-05-02T10:52:58.585Z,53.10
2023-05-02T10:53:58.617Z,53.11
2023-05-02T10:54:58.770Z,53.10
2023-05-02T10:55:58.660Z,53.14
2023-05-02T10:56:58.670Z,53.05
2023-05-02T10:57:58.707Z,53.05
2023-05-02T10:58:58.697Z,53.07
2023-05-02T10:59:58.721Z,53.04
2023-05-02T11:00:58.756Z,53.02
2023-05-02T11:01:58.813Z,53.01
2023-05-02T11:02:58.863Z,52.98
2023-05-02T11:03:58.785Z,52.94
2023-05-02T11:04:59.020Z,52.97
2023-05-02T11:05:58.838Z,52.98
2023-05-02T11:06:58.845Z,52.91
2023-05-02T11:07:58.857Z,52.99
2023-05-02T11:08:58.878Z,52.96
2023-05-02T11:09:58.899Z,52.89
2023-05-02T11:10:58.900Z,52.82
2023-05-02T11:11:58.918Z,52.85
2023-05-02T11:12:59.012Z,52.83
2023-05-02T11:13:58.954Z,52.80
2023-05-02T11:14:59.165Z,52.79
2023-05-02T11:15:58.997Z,52.74
2023-05-02T11:16:59.198Z,52.72
2023-05-02T11:17:59.074Z,52.69
2023-05-02T11:18:59.026Z,52.70
2023-05-02T11:19:59.074Z,52.66
2023-05-02T11:20:59.034Z,52.62
2023-05-02T11:21:59.080Z,52.59
2023-05-02T11:22:59.067Z,52.58
2023-05-02T11:23:59.103Z,52.54
2023-05-02T11:24:59.279Z,52.54
2023-05-02T11:25:59.151Z,52.49
2023-05-02T11:26:59.171Z,52.46
2023-05-02T11:27:59.201Z,52.44
2023-05-02T11:28:59.218Z,52.43
2023-05-02T11:29:59.240Z,52.44
2023-05-02T11:30:59.297Z,52.41
2023-05-02T11:31:59.303Z,52.38
2023-05-02T11:32:59.447Z,52.40
2023-05-02T11:33:59.357Z,52.38
2023-05-02T11:34:59.502Z,52.36
2023-05-02T11:35:59.393Z,52.42
2023-05-02T11:36:59.421Z,52.49
2023-05-02T11:37:59.443Z,52.44
2023-05-02T11:38:59.476Z,52.47
2023-05-02T11:39:59.506Z,52.48
2023-05-02T11:40:59.566Z,52.46
2023-05-02T11:41:59.567Z,52.47
2023-05-02T11:42:59.606Z,52.43
2023-05-02T11:43:59.647Z,52.46
2023-05-02T11:44:59.857Z,52.45
2023-05-02T11:45:59.786Z,52.45
2023-05-02T11:46:59.767Z,52.46
2023-05-02T11:47:59.925Z,52.50
2023-05-02T11:48:59.844Z,52.44
2023-05-02T11:49:59.890Z,52.43
2023-05-02T11:50:59.912Z,52.43
2023-05-02T11:51:59.958Z,52.43
2023-05-02T11:52:59.992Z,52.39
2023-05-02T11:54:00.054Z,52.41
2023-05-02T11:55:00.995Z,52.41
2023-05-02T11:56:00.206Z,52.42
2023-05-02T11:57:00.165Z,52.37
2023-05-02T11:58:00.204Z,52.40
2023-05-02T11:59:00.257Z,52.37
2023-05-02T12:00:00.318Z,52.31
2023-05-02T12:01:00.381Z,52.32
2023-05-02T12:02:00.434Z,52.32
2023-05-02T12:03:00.539Z,52.27
2023-05-02T12:04:00.565Z,52.23
2023-05-02T12:05:00.799Z,52.21
2023-05-02T12:06:00.740Z,52.22
2023-05-02T12:07:00.690Z,52.17
2023-05-02T12:08:00.678Z,52.14
2023-05-02T12:09:00.724Z,52.08
2023-05-02T12:10:00.767Z,52.07
2023-05-02T12:11:00.807Z,52.02
2023-05-02T12:12:00.874Z,51.93
2023-05-02T12:13:00.903Z,51.94
2023-05-02T12:14:00.950Z,51.88
2023-05-02T12:15:01.225Z,51.87
2023-05-02T12:16:01.085Z,51.85
2023-05-02T12:17:01.093Z,51.88
2023-05-02T12:18:01.237Z,51.88
2023-05-02T12:19:01.325Z,51.84
2023-05-02T12:20:01.211Z,51.83
2023-05-02T12:21:01.247Z,51.80
2023-05-02T12:22:01.296Z,51.83
2023-05-02T12:23:01.347Z,51.78
2023-05-02T12:24:01.378Z,51.76
2023-05-02T12:25:01.670Z,51.75
2023-05-02T12:26:01.465Z,51.74
2023-05-02T12:27:01.505Z,51.77
2023-05-02T12:28:01.552Z,51.77
2023-05-02T12:29:01.600Z,51.78
2023-05-02T12:30:02.115Z,51.81
2023-05-02T12:31:01.702Z,51.82
2023-05-02T12:32:01.799Z,51.77
2023-05-02T12:33:01.891Z,51.78
2023-05-02T12:34:01.931Z,51.78
2023-05-02T12:35:01.900Z,51.77
2023-05-02T12:36:01.949Z,51.82
2023-05-02T12:37:01.997Z,51.78
2023-05-02T12:38:02.051Z,51.77
2023-05-02T12:39:02.165Z,51.79
2023-05-02T12:40:02.360Z,51.75
2023-05-02T12:41:02.202Z,51.73
2023-05-02T12:42:02.261Z,51.75
2023-05-02T12:43:02.313Z,51.75
2023-05-02T12:44:02.402Z,51.73
2023-05-02T12:45:02.439Z,51.73
2023-05-02T12:46:02.492Z,51.66
2023-05-02T12:47:02.640Z,51.70
2023-05-02T12:48:02.634Z,51.70
2023-05-02T12:49:02.674Z,51.66
2023-05-02T12:50:02.901Z,51.65
2023-05-02T12:51:02.865Z,51.68
2023-05-02T12:52:02.849Z,51.63
2023-05-02T12:53:02.907Z,51.66